Time;durP1;ratioP1;P1;durP2;ratioP2;P2;SDS_P1;SDS_P2;PMS_P1;PMS_P2;Temp;Humidity;BMP_temperature;BMP_pressure;BME280_temperature;BME280_humidity;BME280_pressure;Samples;Min_cycle;Max_cycle;Signal;HPM_P1;HPM_P2
2023/11/28 00:01:45;;;;;;;4.95;3.00;;;;;;;-0.85;100.00;100026.66;4890376;29;20032;-74
2023/11/28 00:04:11;;;;;;;4.38;2.38;;;;;;;-0.86;100.00;100020.59;4870955;29;20116;-73
2023/11/28 00:06:36;;;;;;;6.57;2.83;;;;;;;-0.86;100.00;100023.22;4855657;29;20054;-74
2023/11/28 00:09:03;;;;;;;4.88;2.53;;;;;;;-0.89;100.00;100026.25;4888475;29;20730;-74
2023/11/28 00:11:29;;;;;;;5.95;2.70;;;;;;;-0.89;100.00;100034.16;4888721;29;20040;-74
2023/11/28 00:13:54;;;;;;;5.03;2.25;;;;;;;-0.90;100.00;100037.78;4872373;29;20041;-74
2023/11/28 00:16:20;;;;;;;6.50;2.60;;;;;;;-0.91;100.00;100033.56;4890981;29;20073;-74
2023/11/28 00:18:46;;;;;;;3.53;2.65;;;;;;;-0.92;100.00;100039.84;4871747;29;20603;-76
2023/11/28 00:21:12;;;;;;;3.67;2.05;;;;;;;-0.92;100.00;100033.78;4871611;29;20036;-74
2023/11/28 00:23:38;;;;;;;4.93;2.80;;;;;;;-0.94;100.00;100034.00;4872960;29;20059;-75
2023/11/28 00:26:03;;;;;;;5.03;2.50;;;;;;;-0.92;100.00;100034.59;4887298;29;20032;-75
2023/11/28 00:28:29;;;;;;;6.45;2.95;;;;;;;-0.95;100.00;100042.06;4859005;29;20040;-73
2023/11/28 00:30:54;;;;;;;5.13;2.78;;;;;;;-0.96;100.00;100037.84;4888425;29;20043;-73
2023/11/28 00:33:20;;;;;;;5.53;2.40;;;;;;;-0.96;100.00;100035.19;4896382;29;20554;-77
2023/11/28 00:35:46;;;;;;;5.05;2.70;;;;;;;-0.98;100.00;100035.41;4881909;29;20672;-73
2023/11/28 00:38:13;;;;;;;;;;;;;;;-1.01;100.00;100045.56;4840099;29;20514;-76
2023/11/28 00:40:43;;;;;;;4.28;2.55;;;;;;;-1.03;100.00;100050.19;4867163;29;19919;-74
2023/11/28 00:43:10;;;;;;;4.05;2.15;;;;;;;-1.04;100.00;100052.03;4885627;29;20084;-75
2023/11/28 00:45:36;;;;;;;5.25;2.40;;;;;;;-1.07;100.00;100052.47;4877248;29;20036;-75
2023/11/28 00:48:03;;;;;;;5.70;2.40;;;;;;;-1.11;100.00;100051.25;4836785;29;20128;-76
2023/11/28 00:50:28;;;;;;;4.40;2.58;;;;;;;-1.13;100.00;100059.34;4886338;29;20028;-76
2023/11/28 00:52:54;;;;;;;6.38;2.90;;;;;;;-1.15;100.00;100055.34;4869723;29;20485;-74
2023/11/28 00:55:20;;;;;;;4.03;2.50;;;;;;;-1.17;100.00;100054.72;4874071;29;20032;-74
2023/11/28 00:57:45;;;;;;;3.78;2.42;;;;;;;-1.18;100.00;100050.50;4864263;29;20124;-73
2023/11/28 01:00:12;;;;;;;4.22;1.75;;;;;;;-1.18;100.00;100055.75;4872134;29;20040;-75
2023/11/28 01:02:40;;;;;;;4.20;2.45;;;;;;;-1.20;100.00;100060.41;4848920;29;20041;-75
2023/11/28 01:05:07;;;;;;;4.18;2.35;;;;;;;-1.20;100.00;100058.59;4866936;29;20092;-75
2023/11/28 01:07:33;;;;;;;4.38;2.33;;;;;;;-1.20;100.00;100052.53;4878280;29;20108;-74
2023/11/28 01:09:59;;;;;;;3.13;1.75;;;;;;;-1.22;100.00;100051.91;4877742;29;20044;-74
2023/11/28 01:12:25;;;;;;;3.95;2.00;;;;;;;-1.25;100.00;100052.34;4874575;29;20155;-75
2023/11/28 01:14:52;;;;;;;3.50;2.25;;;;;;;-1.27;100.00;100063.06;4855932;29;20044;-74
2023/11/28 01:17:17;;;;;;;4.05;2.00;;;;;;;-1.26;100.00;100066.50;4883233;29;20063;-76
2023/11/28 01:19:43;;;;;;;4.18;1.98;;;;;;;-1.30;100.00;100063.47;4868387;29;20119;-75
2023/11/28 01:22:11;;;;;;;2.90;1.92;;;;;;;-1.30;100.00;100078.41;4834217;29;20037;-75
2023/11/28 01:24:41;;;;;;;2.35;1.60;;;;;;;-1.30;100.00;100073.16;4885523;29;20041;-75
2023/11/28 01:27:08;;;;;;;2.70;1.70;;;;;;;-1.30;100.00;100073.16;4849091;29;20045;-75
2023/11/28 01:29:35;;;;;;;3.00;1.80;;;;;;;-1.29;100.00;100077.41;4858987;29;20041;-75
2023/11/28 01:32:02;;;;;;;3.28;1.58;;;;;;;-1.29;100.00;100082.66;4845396;29;20052;-74
2023/11/28 01:34:28;;;;;;;3.28;1.73;;;;;;;-1.31;100.00;100082.88;4881225;29;20044;-73
2023/11/28 01:36:53;;;;;;;6.03;2.13;;;;;;;-1.34;100.00;100079.88;4872758;29;20063;-73
2023/11/28 01:39:19;;;;;;;2.50;1.70;;;;;;;-1.37;100.00;100089.75;4854815;29;20136;-74
2023/11/28 01:41:49;;;;;;;3.53;2.10;;;;;;;-1.39;100.00;100094.41;4853727;29;20049;-74
2023/11/28 01:44:15;;;;;;;3.53;2.10;;;;;;;-1.38;100.00;100097.84;4854901;29;20044;-75
2023/11/28 01:46:41;;;;;;;3.80;1.70;;;;;;;-1.40;100.00;100095.44;4870966;29;20040;-75
2023/11/28 01:49:07;;;;;;;;;;;;;;;-1.42;100.00;100089.59;4890399;29;20177;-74
2023/11/28 01:51:35;;;;;;;2.85;1.58;;;;;;;-1.41;100.00;100096.44;4859959;29;19923;-74
2023/11/28 01:54:02;;;;;;;3.97;1.65;;;;;;;-1.41;100.00;100095.66;4843802;29;20028;-74
2023/11/28 01:56:29;;;;;;;2.85;1.63;;;;;;;-1.44;100.00;100098.66;4859569;29;20403;-74
2023/11/28 01:58:56;;;;;;;2.70;1.73;;;;;;;-1.45;100.00;100092.63;4878316;29;20185;-74
2023/11/28 02:01:23;;;;;;;2.53;1.60;;;;;;;-1.45;100.00;100097.06;4873800;29;20132;-76
2023/11/28 02:03:50;;;;;;;3.35;2.05;;;;;;;-1.47;100.00;100094.66;4880325;29;20040;-75
2023/11/28 02:06:16;;;;;;;2.47;1.85;;;;;;;-1.47;100.00;100093.84;4870490;29;20036;-75
2023/11/28 02:08:41;;;;;;;2.58;1.63;;;;;;;-1.47;100.00;100096.47;4873300;29;20092;-75
2023/11/28 02:11:10;;;;;;;3.53;1.85;;;;;;;-1.49;100.00;100096.69;4871536;29;20096;-72
2023/11/28 02:13:46;;;;;;;3.47;1.35;;;;;;;-1.48;100.00;100092.25;4875524;29;20154;-73
2023/11/28 02:16:15;;;;;;;2.80;1.63;;;;;;;-1.48;100.00;100097.50;4890685;29;20104;-73
2023/11/28 02:18:42;;;;;;;2.35;1.35;;;;;;;-1.49;100.00;100101.09;4883424;29;20083;-73
2023/11/28 02:21:12;;;;;;;3.78;1.70;;;;;;;-1.50;100.00;100105.56;4874687;29;20036;-73
2023/11/28 02:23:39;;;;;;;2.80;1.60;;;;;;;-1.49;100.00;100099.31;4881078;29;20076;-73
2023/11/28 02:26:19;;;;;;;2.60;1.60;;;;;;;-1.47;100.00;100104.34;4855063;29;20075;-75
2023/11/28 02:28:45;;;;;;;4.85;1.98;;;;;;;-1.48;100.00;100105.38;4873894;29;20056;-74
2023/11/28 02:31:12;;;;;;;2.53;1.55;;;;;;;-1.50;100.00;100102.94;4843737;29;20092;-75
2023/11/28 02:33:38;;;;;;;3.85;1.80;;;;;;;-1.53;100.00;100105.97;4865518;29;20037;-75
2023/11/28 02:36:04;;;;;;;2.40;1.45;;;;;;;-1.54;100.00;100104.38;4869449;29;20039;-74
2023/11/28 02:38:30;;;;;;;3.00;1.98;;;;;;;-1.56;100.00;100109.00;4876608;29;20037;-73
2023/11/28 02:40:56;;;;;;;4.47;1.90;;;;;;;-1.54;100.00;100108.81;4876767;29;20033;-73
2023/11/28 02:43:22;;;;;;;2.55;1.60;;;;;;;-1.56;100.00;100111.63;4904372;29;20040;-73
2023/11/28 02:45:48;;;;;;;4.18;1.70;;;;;;;-1.56;100.00;100111.63;4845901;29;20059;-74
2023/11/28 02:48:14;;;;;;;2.65;1.60;;;;;;;-1.59;100.00;100114.66;4853510;29;20037;-74
2023/11/28 02:50:41;;;;;;;2.83;1.33;;;;;;;-1.61;100.00;100114.09;4872335;29;20045;-73
2023/11/28 02:53:08;;;;;;;3.45;1.90;;;;;;;-1.60;100.00;100115.69;4854661;29;20092;-76
2023/11/28 02:55:33;;;;;;;2.38;1.48;;;;;;;-1.60;100.00;100109.63;4845674;29;20040;-73
2023/11/28 02:58:00;;;;;;;2.95;2.00;;;;;;;-1.60;100.00;100110.44;4871372;29;20503;-73
2023/11/28 03:00:26;;;;;;;2.53;1.90;;;;;;;-1.60;100.00;100107.81;4874592;29;20041;-75
2023/11/28 03:02:52;;;;;;;4.63;1.83;;;;;;;-1.60;100.00;100112.25;4875059;29;20048;-75
2023/11/28 03:05:18;;;;;;;2.17;1.60;;;;;;;-1.62;100.00;100112.47;4858428;29;20040;-73
2023/11/28 03:07:44;;;;;;;2.67;1.80;;;;;;;-1.60;100.00;100109.63;4888782;29;20558;-76
2023/11/28 03:10:10;;;;;;;3.75;1.90;;;;;;;-1.61;100.00;100108.81;4871605;29;20036;-73
2023/11/28 03:12:36;;;;;;;3.38;1.55;;;;;;;-1.60;100.00;100115.69;4852408;29;20041;-75
2023/11/28 03:15:03;;;;;;;2.90;2.00;;;;;;;-1.62;100.00;100112.47;4873629;29;20447;-75
2023/11/28 03:17:29;;;;;;;3.63;1.52;;;;;;;-1.63;100.00;100110.84;4883930;29;20531;-73
2023/11/28 03:19:56;;;;;;;2.83;2.17;;;;;;;-1.64;100.00;100114.47;4860600;29;20721;-75
2023/11/28 03:22:22;;;;;;;;;;;;;;;-1.65;100.00;100116.28;4873345;29;20037;-75
2023/11/28 03:24:50;;;;;;;2.40;1.20;;;;;;;-1.66;100.00;100124.38;4887663;29;20377;-75
2023/11/28 03:27:18;;;;;;;3.15;1.65;;;;;;;-1.66;100.00;100124.38;4857251;29;20068;-73
2023/11/28 03:29:43;;;;;;;3.55;1.40;;;;;;;-1.66;100.00;100127.00;4863125;29;20041;-74
2023/11/28 03:32:09;;;;;;;2.22;1.30;;;;;;;-1.65;100.00;100126.00;4868789;29;20123;-74
2023/11/28 03:34:34;;;;;;;2.83;1.35;;;;;;;-1.65;100.00;100123.38;4874825;29;20032;-74
2023/11/28 03:37:01;;;;;;;2.53;1.60;;;;;;;-1.68;100.00;100127.22;4887603;29;20521;-74
2023/11/28 03:39:26;;;;;;;1.73;1.10;;;;;;;-1.68;100.00;100126.41;4901519;29;20044;-74
2023/11/28 03:41:52;;;;;;;2.28;1.38;;;;;;;-1.70;100.00;100125.78;4869887;29;20054;-75
2023/11/28 03:44:18;;;;;;;2.00;1.40;;;;;;;-1.72;100.00;100126.00;4872291;29;20044;-74
2023/11/28 03:46:44;;;;;;;1.88;0.93;;;;;;;-1.73;100.00;100121.75;4871006;29;20041;-75
2023/11/28 03:49:10;;;;;;;1.95;1.42;;;;;;;-1.75;100.00;100133.50;4872942;29;20637;-75
2023/11/28 03:51:38;;;;;;;1.40;0.95;;;;;;;-1.77;100.00;100127.63;4858907;29;20060;-75
2023/11/28 03:54:10;;;;;;;1.70;1.40;;;;;;;-1.79;100.00;100134.91;4921123;23;20130;-80
2023/11/28 03:56:43;;;;;;;2.08;1.20;;;;;;;-1.80;100.00;100130.66;4890176;29;20186;-77
2023/11/28 03:59:19;;;;;;;3.35;1.10;;;;;;;-1.83;100.00;100136.31;4881177;29;20040;-80
2023/11/28 04:01:46;;;;;;;2.58;1.20;;;;;;;-1.83;100.00;100142.38;4868575;29;20136;-81
2023/11/28 04:04:11;;;;;;;;;;;;;;;-1.81;100.00;100140.34;4881414;29;20040;-81
2023/11/28 04:06:38;;;;;;;3.03;1.30;;;;;;;-1.83;100.00;100141.56;4876635;29;19919;-80
2023/11/28 04:09:04;;;;;;;2.25;1.50;;;;;;;-1.86;100.00;100144.59;4860654;29;20518;-80
2023/11/28 04:11:30;;;;;;;;;;;;;;;-1.86;100.00;100141.97;4877626;29;20127;-82
2023/11/28 04:14:01;;;;;;;4.00;1.90;;;;;;;-1.83;100.00;100149.44;4874847;29;19915;-80
2023/11/28 04:16:28;;;;;;;2.55;1.67;;;;;;;-1.88;100.00;100154.50;4863311;29;20518;-81
2023/11/28 04:18:55;;;;;;;5.25;2.45;;;;;;;-1.85;100.00;100159.34;4861804;29;20044;-80
2023/11/28 04:21:22;;;;;;;5.07;2.30;;;;;;;-1.84;100.00;100160.94;4864372;29;20438;-80
2023/11/28 04:23:48;;;;;;;5.80;2.55;;;;;;;-1.86;100.00;100157.72;4878893;29;20080;-82
2023/11/28 04:26:18;;;;;;;3.08;2.38;;;;;;;-1.81;100.00;100163.97;4876772;29;20059;-81
2023/11/28 04:28:46;;;;;;;4.63;2.72;;;;;;;-1.78;100.00;100157.50;4861005;29;20146;-80
2023/11/28 04:31:20;;;;;;;2.92;2.17;;;;;;;-1.79;100.00;100163.78;4875192;29;20041;-80
2023/11/28 04:33:49;;;;;;;4.47;2.65;;;;;;;-1.78;100.00;100165.38;4873989;29;20033;-80
2023/11/28 04:36:17;;;;;;;4.28;2.58;;;;;;;-1.79;100.00;100163.78;4890306;29;20039;-80
2023/11/28 04:38:43;;;;;;;5.07;2.35;;;;;;;-1.74;100.00;100171.84;4867086;29;20565;-80
2023/11/28 04:41:14;;;;;;;4.20;2.50;;;;;;;-1.68;100.00;100181.53;4878427;29;20047;-81
2023/11/28 04:43:44;;;;;;;5.80;2.85;;;;;;;-1.60;100.00;100173.47;4865859;29;20096;-81
2023/11/28 04:46:10;;;;;;;3.60;2.33;;;;;;;-1.58;100.00;100166.16;4895495;29;20048;-82
2023/11/28 04:48:39;;;;;;;4.45;2.65;;;;;;;-1.55;100.00;100167.59;4875024;29;20400;-80
2023/11/28 04:51:05;;;;;;;4.20;2.75;;;;;;;-1.49;100.00;100179.88;4876901;29;20409;-82
2023/11/28 04:53:30;;;;;;;2.80;2.00;;;;;;;-1.47;100.00;100177.88;4849983;29;20040;-80
2023/11/28 04:55:57;;;;;;;3.35;2.28;;;;;;;-1.44;100.00;100188.78;4858649;29;20040;-81
2023/11/28 04:58:23;;;;;;;;;;;;;;;-1.38;100.00;100189.78;4845484;29;20103;-80
2023/11/28 05:00:50;;;;;;;3.03;1.75;;;;;;;-1.34;100.00;100185.75;4846258;29;20452;-79
2023/11/28 05:03:19;;;;;;;3.58;2.05;;;;;;;-1.32;100.00;100180.28;4860289;29;20036;-81
2023/11/28 05:05:45;;;;;;;5.55;2.33;;;;;;;-1.29;100.00;100198.25;4859220;29;20048;-80
2023/11/28 05:08:13;;;;;;;3.17;2.30;;;;;;;-1.33;100.00;100179.47;4865958;29;20045;-80
2023/11/28 05:10:38;;;;;;;2.75;2.10;;;;;;;-1.32;100.00;100194.22;4859187;29;20043;-81
2023/11/28 05:13:07;;;;;;;3.17;2.25;;;;;;;-1.33;100.00;100187.34;4878700;29;20040;-80
2023/11/28 05:15:33;;;;;;;3.10;1.95;;;;;;;-1.29;100.00;100204.31;4879015;29;20124;-81
2023/11/28 05:17:58;;;;;;;3.55;2.30;;;;;;;-1.28;100.00;100199.88;4880939;29;20072;-82
2023/11/28 05:20:29;;;;;;;4.47;2.53;;;;;;;-1.30;100.00;100199.25;4862556;29;20049;-81
2023/11/28 05:22:56;;;;;;;;;;;;;;;-1.28;100.00;100202.50;4865881;29;20829;-81
2023/11/28 05:25:22;;;;;;;3.80;2.10;;;;;;;-1.29;100.00;100195.63;4863081;29;19919;-81
2023/11/28 05:27:47;;;;;;;3.53;2.42;;;;;;;-1.29;100.00;100195.63;4866049;29;20044;-80
2023/11/28 05:30:16;;;;;;;3.28;2.03;;;;;;;-1.31;100.00;100195.84;4871111;29;20071;-80
2023/11/28 05:32:42;;;;;;;4.55;2.20;;;;;;;-1.34;100.00;100198.06;4884352;29;20104;-81
2023/11/28 05:35:09;;;;;;;;;;;;;;;-1.35;100.00;100205.16;4882626;29;20048;-81
2023/11/28 05:37:35;;;;;;;3.35;1.90;;;;;;;-1.37;100.00;100199.28;4891224;29;19925;-80
2023/11/28 05:40:04;;;;;;;3.00;2.25;;;;;;;-1.37;100.00;100196.66;4863902;29;20040;-82
2023/11/28 05:42:31;;;;;;;2.78;1.80;;;;;;;-1.43;100.00;100200.88;4897056;29;20033;-82
2023/11/28 05:44:57;;;;;;;;;;;;;;;-1.44;100.00;100209.78;4869298;29;20518;-81
2023/11/28 05:47:26;;;;;;;4.10;1.92;;;;;;;-1.46;100.00;100200.50;4878822;29;20357;-80
2023/11/28 05:49:52;;;;;;;3.05;2.10;;;;;;;-1.47;100.00;100204.97;4869670;29;20045;-82
2023/11/28 05:52:21;;;;;;;;;;;;;;;-1.46;100.00;100216.28;4864604;29;20116;-81
2023/11/28 05:54:47;;;;;;;2.97;1.90;;;;;;;-1.49;100.00;100214.88;4867923;29;19922;-81
2023/11/28 05:57:14;;;;;;;3.28;2.30;;;;;;;-1.55;100.00;100212.25;4907681;29;20032;-80
2023/11/28 05:59:40;;;;;;;3.88;2.53;;;;;;;-1.58;100.00;100223.94;4887669;29;20043;-81
2023/11/28 06:02:08;;;;;;;4.50;2.40;;;;;;;-1.59;100.00;100229.41;4867476;29;20541;-81
2023/11/28 06:04:34;;;;;;;3.88;2.55;;;;;;;-1.62;100.00;100216.69;4873179;29;20106;-81
2023/11/28 06:07:02;;;;;;;5.45;2.65;;;;;;;-1.65;100.00;100229.19;4873309;29;20115;-81
2023/11/28 06:09:28;;;;;;;4.88;2.53;;;;;;;-1.66;100.00;100237.28;4906425;29;20048;-80
2023/11/28 06:11:57;;;;;;;4.55;2.65;;;;;;;-1.69;100.00;100235.06;4907500;29;20044;-82
2023/11/28 06:14:27;;;;;;;3.85;2.55;;;;;;;-1.70;100.00;100246.56;4878549;29;20057;-81
2023/11/28 06:16:55;;;;;;;4.97;2.60;;;;;;;-1.71;100.00;100242.31;4890685;29;20083;-80
2023/11/28 06:19:21;;;;;;;3.95;2.33;;;;;;;-1.73;100.00;100242.53;4858119;29;20040;-80
2023/11/28 06:21:47;;;;;;;6.82;2.95;;;;;;;-1.73;100.00;100239.91;4904779;29;20232;-81
2023/11/28 06:24:15;;;;;;;3.88;2.78;;;;;;;-1.73;100.00;100236.47;4868683;29;20043;-81
2023/11/28 06:26:41;;;;;;;6.60;2.30;;;;;;;-1.72;100.00;100240.72;4869944;29;20037;-81
2023/11/28 06:29:06;;;;;;;4.35;2.80;;;;;;;-1.72;100.00;100248.59;4868976;29;20095;-82
2023/11/28 06:31:32;;;;;;;3.50;2.38;;;;;;;-1.72;100.00;100248.59;4856818;29;20059;-83
2023/11/28 06:33:58;;;;;;;3.55;2.40;;;;;;;-1.75;100.00;100252.44;4874184;29;20039;-83
2023/11/28 06:36:24;;;;;;;4.30;2.40;;;;;;;-1.74;100.00;100255.88;4851299;29;20056;-80
2023/11/28 06:38:49;;;;;;;6.03;3.10;;;;;;;-1.76;100.00;100252.59;4872060;29;20543;-80
2023/11/28 06:41:15;;;;;;;3.63;2.83;;;;;;;-1.81;100.00;100250.59;4883990;29;20127;-78
2023/11/28 06:43:45;;;;;;;5.00;2.65;;;;;;;-1.82;100.00;100258.69;4881257;29;20768;-78
2023/11/28 06:46:21;;;;;;;3.80;2.85;;;;;;;-1.81;100.00;100255.84;4865721;29;20051;-77
2023/11/28 06:48:48;;;;;;;4.22;2.38;;;;;;;-1.79;100.00;100268.78;4883175;29;20044;-80
2023/11/28 06:51:15;;;;;;;5.15;3.00;;;;;;;-1.82;100.00;100270.00;4887064;29;20036;-80
2023/11/28 06:53:41;;;;;;;;;;;;;;;-1.83;100.00;100276.25;4867525;29;20055;-81
2023/11/28 06:56:09;;;;;;;4.47;3.00;;;;;;;-1.84;100.00;100271.19;4876352;29;20440;-82
2023/11/28 06:58:35;;;;;;;4.50;2.60;;;;;;;-1.82;100.00;100282.31;4875025;29;20039;-82
2023/11/28 07:01:03;;;;;;;5.63;2.75;;;;;;;-1.80;100.00;100280.28;4881408;29;20040;-82
2023/11/28 07:03:32;;;;;;;4.40;2.58;;;;;;;-1.78;100.00;100286.13;4883083;29;20120;-82
2023/11/28 07:06:00;;;;;;;4.38;2.42;;;;;;;-1.80;100.00;100288.16;4874821;29;20077;-80
2023/11/28 07:08:29;;;;;;;4.75;2.90;;;;;;;-1.74;100.00;100287.38;4854183;29;20592;-83
2023/11/28 07:10:57;;;;;;;4.60;2.67;;;;;;;-1.75;100.00;100288.38;4865567;29;20072;-81
2023/11/28 07:13:24;;;;;;;5.13;2.78;;;;;;;-1.73;100.00;100273.22;4861250;29;20152;-81
2023/11/28 07:15:50;;;;;;;4.13;2.60;;;;;;;-1.71;100.00;100289.56;4865992;29;20040;-82
2023/11/28 07:18:20;;;;;;;4.95;2.67;;;;;;;-1.65;100.00;100294.03;4871848;29;20049;-81
2023/11/28 07:20:50;;;;;;;4.13;2.58;;;;;;;-1.65;100.00;100294.03;4894107;29;20037;-80
2023/11/28 07:23:19;;;;;;;3.90;2.95;;;;;;;-1.64;100.00;100303.53;4870971;29;20036;-78
2023/11/28 07:25:46;;;;;;;3.70;2.38;;;;;;;-1.59;100.00;100308.97;4889715;29;20040;-83
2023/11/28 07:28:13;;;;;;;4.07;2.67;;;;;;;-1.57;100.00;100308.78;4885025;29;20048;-80
2023/11/28 07:30:39;;;;;;;3.97;2.50;;;;;;;-1.54;100.00;100306.56;4880220;29;20635;-80
2023/11/28 07:33:04;;;;;;;5.75;2.53;;;;;;;-1.50;100.00;100302.53;4861170;29;20047;-82
2023/11/28 07:35:30;;;;;;;4.80;2.70;;;;;;;-1.47;100.00;100310.00;4882570;29;20036;-83
2023/11/28 07:37:56;;;;;;;4.50;2.20;;;;;;;-1.49;100.00;100306.78;4852372;29;20809;-81
2023/11/28 07:40:26;;;;;;;5.50;2.50;;;;;;;-1.47;100.00;100304.75;4874907;29;20096;-81
2023/11/28 07:42:53;;;;;;;3.15;2.05;;;;;;;-1.46;100.00;100313.44;4889888;29;20040;-81
2023/11/28 07:45:19;;;;;;;4.00;2.58;;;;;;;-1.38;100.00;100303.53;4871077;29;20075;-81
2023/11/28 07:47:44;;;;;;;4.13;2.28;;;;;;;-1.34;100.00;100313.66;4861562;29;20036;-81
2023/11/28 07:50:10;;;;;;;4.47;2.50;;;;;;;-1.38;100.00;100311.41;4873374;29;20075;-81
2023/11/28 07:52:36;;;;;;;3.95;2.35;;;;;;;-1.31;100.00;100313.25;4871199;29;20048;-80
2023/11/28 07:55:02;;;;;;;4.00;1.98;;;;;;;-1.33;100.00;100323.97;4866485;29;20064;-82
2023/11/28 07:57:28;;;;;;;3.88;2.03;;;;;;;-1.29;100.00;100321.72;4867405;29;20123;-78
2023/11/28 07:59:55;;;;;;;3.80;2.20;;;;;;;-1.30;100.00;100328.00;4883955;29;20088;-80
2023/11/28 08:02:21;;;;;;;4.45;2.60;;;;;;;-1.27;100.00;100338.13;4901861;29;20039;-79
2023/11/28 08:04:47;;;;;;;4.32;2.50;;;;;;;-1.28;100.00;100332.06;4873986;29;20036;-81
2023/11/28 08:07:12;;;;;;;5.57;2.33;;;;;;;-1.30;100.00;100341.13;4885691;29;20040;-82
2023/11/28 08:09:38;;;;;;;2.92;2.03;;;;;;;-1.29;100.00;100342.75;4863780;29;20068;-82
2023/11/28 08:12:04;;;;;;;3.47;2.05;;;;;;;-1.30;100.00;100335.88;4877874;29;20044;-81
2023/11/28 08:14:29;;;;;;;3.75;1.98;;;;;;;-1.30;100.00;100341.13;4852705;29;20654;-80
2023/11/28 08:16:55;;;;;;;3.67;2.13;;;;;;;-1.32;100.00;100340.53;4856434;29;20810;-81
2023/11/28 08:19:22;;;;;;;2.78;2.13;;;;;;;-1.29;100.00;100333.03;4854937;29;20109;-79
2023/11/28 08:21:48;;;;;;;4.30;2.17;;;;;;;-1.30;100.00;100341.13;4888967;29;20123;-81
2023/11/28 08:24:14;;;;;;;3.80;2.30;;;;;;;-1.29;100.00;100348.81;4868996;29;20122;-82
2023/11/28 08:26:40;;;;;;;3.22;1.60;;;;;;;-1.26;100.00;100347.59;4871335;29;20036;-80
2023/11/28 08:29:06;;;;;;;5.03;2.13;;;;;;;-1.23;100.00;100352.44;4879676;29;20052;-83
2023/11/28 08:31:32;;;;;;;3.30;2.15;;;;;;;-1.23;100.00;100355.06;4883935;29;20048;-81
2023/11/28 08:33:57;;;;;;;4.38;1.98;;;;;;;-1.21;100.00;100361.75;4867566;29;20033;-81
2023/11/28 08:36:24;;;;;;;4.10;2.20;;;;;;;-1.20;100.00;100352.06;4884389;29;20040;-80
2023/11/28 08:38:50;;;;;;;3.45;1.67;;;;;;;-1.21;100.00;100358.34;4855275;29;20815;-81
2023/11/28 08:41:16;;;;;;;4.63;2.13;;;;;;;-1.19;100.00;100365.00;4884016;29;20127;-81
2023/11/28 08:43:42;;;;;;;4.50;2.10;;;;;;;-1.20;100.00;100362.56;4865690;29;20067;-81
2023/11/28 08:46:09;;;;;;;3.92;2.03;;;;;;;-1.19;100.00;100359.72;4883015;29;20140;-81
2023/11/28 08:48:35;;;;;;;;;;;;;;;-1.14;100.00;100367.03;4867401;29;20498;-81
2023/11/28 08:51:00;;;;;;;2.97;1.58;;;;;;;-1.12;100.00;100365.00;4881170;29;19946;-80
2023/11/28 08:53:27;;;;;;;3.45;1.75;;;;;;;-1.13;100.00;100373.91;4891862;29;20085;-82
2023/11/28 08:55:54;;;;;;;3.38;1.83;;;;;;;-1.06;100.00;100376.53;4864201;29;20081;-83
2023/11/28 08:58:20;;;;;;;3.78;2.10;;;;;;;-1.08;100.00;100379.34;4869108;29;20064;-80
2023/11/28 09:00:46;;;;;;;2.97;1.80;;;;;;;-1.05;100.00;100378.94;4863044;29;20040;-80
2023/11/28 09:03:12;;;;;;;2.83;2.00;;;;;;;-1.01;100.00;100374.91;4863322;29;20129;-80
2023/11/28 09:05:41;;;;;;;4.20;2.10;;;;;;;-1.04;100.00;100377.94;4878952;29;20045;-81
2023/11/28 09:08:07;;;;;;;2.83;1.67;;;;;;;-1.01;100.00;100385.41;4897182;29;20045;-81
2023/11/28 09:10:33;;;;;;;3.20;2.00;;;;;;;-0.99;100.00;100391.28;4875999;29;20048;-80
2023/11/28 09:12:58;;;;;;;3.67;2.03;;;;;;;-0.99;100.00;100388.66;4880959;29;20168;-80
2023/11/28 09:15:25;;;;;;;6.35;2.33;;;;;;;-0.94;100.00;100398.56;4867804;29;20036;-79
2023/11/28 09:17:53;;;;;;;3.80;2.00;;;;;;;-0.96;100.00;100396.13;4885870;29;20659;-80
2023/11/28 09:20:24;;;;;;;3.15;1.75;;;;;;;-0.97;100.00;100399.75;4885278;29;20032;-81
2023/11/28 09:22:50;;;;;;;4.07;1.75;;;;;;;-0.98;100.00;100408.66;4890966;29;20028;-80
2023/11/28 09:25:16;;;;;;;5.65;2.22;;;;;;;-1.03;100.00;100400.56;4847240;29;20051;-81
2023/11/28 09:27:42;;;;;;;6.47;2.20;;;;;;;-1.02;100.00;100412.69;4866217;29;20049;-81
2023/11/28 09:30:08;;;;;;;5.82;2.17;;;;;;;-1.04;100.00;100409.47;4870613;29;20578;-81
2023/11/28 09:32:33;;;;;;;4.70;2.35;;;;;;;-1.07;100.00;100415.13;4864387;29;20052;-80
2023/11/28 09:34:59;;;;;;;3.35;2.10;;;;;;;-1.08;100.00;100413.53;4863970;29;20044;-81
2023/11/28 09:37:25;;;;;;;3.58;2.10;;;;;;;-1.03;100.00;100421.59;4867640;29;20041;-83
2023/11/28 09:39:51;;;;;;;4.32;2.30;;;;;;;-1.03;100.00;100411.09;4845690;29;20036;-83
2023/11/28 09:42:18;;;;;;;10.50;2.45;;;;;;;-1.03;100.00;100418.97;4873124;29;20032;-83
2023/11/28 09:44:46;;;;;;;5.10;2.38;;;;;;;-1.05;100.00;100407.03;4848650;29;20559;-80
2023/11/28 09:47:15;;;;;;;3.75;2.00;;;;;;;-0.99;100.00;100417.56;4880455;29;20051;-82
2023/11/28 09:49:43;;;;;;;5.03;2.20;;;;;;;-0.97;100.00;100433.94;4847042;29;20048;-79
2023/11/28 09:52:12;;;;;;;4.05;2.15;;;;;;;-0.96;100.00;100422.41;4871995;29;20055;-79
2023/11/28 09:54:38;;;;;;;3.55;2.28;;;;;;;-0.95;100.00;100424.06;4862571;29;20048;-83
2023/11/28 09:57:12;;;;;;;4.35;2.60;;;;;;;-0.92;100.00;100417.56;4860659;29;20055;-81
2023/11/28 09:59:38;;;;;;;;;;;;;;;-0.91;100.00;100419.97;4875891;29;20041;-80
2023/11/28 10:02:05;;;;;;;5.63;2.10;;;;;;;-0.90;100.00;100426.84;4866087;29;19922;-80
2023/11/28 10:04:32;;;;;;;5.57;2.35;;;;;;;-0.87;100.00;100421.22;4853093;29;20037;-81
2023/11/28 10:07:02;;;;;;;4.45;2.80;;;;;;;-0.85;100.00;100424.44;4870534;29;20143;-82
2023/11/28 10:09:31;;;;;;;3.75;2.10;;;;;;;-0.83;100.00;100421.59;4889548;29;20056;-81
2023/11/28 10:11:59;;;;;;;2.97;2.10;;;;;;;-0.80;100.00;100417.78;4878738;29;20046;-81
2023/11/28 10:14:25;;;;;;;3.70;2.10;;;;;;;-0.84;100.00;100409.47;4901397;29;20024;-80
2023/11/28 10:16:53;;;;;;;2.92;2.10;;;;;;;-0.78;100.00;100428.88;4887926;29;20088;-82
2023/11/28 10:19:21;;;;;;;3.58;2.33;;;;;;;-0.77;100.00;100418.16;4903990;29;20139;-81
2023/11/28 10:21:49;;;;;;;3.33;1.95;;;;;;;-0.76;100.00;100421.59;4867309;29;20046;-81
2023/11/28 10:24:15;;;;;;;;;;;;;;;-0.72;100.00;100418.38;4885150;29;20032;-81
2023/11/28 10:26:40;;;;;;;3.35;2.00;;;;;;;-0.68;100.00;100424.00;4851018;29;20014;-82
2023/11/28 10:29:07;;;;;;;3.50;1.90;;;;;;;-0.64;100.00;100414.72;4866743;29;20044;-83
2023/11/28 10:31:39;;;;;;;2.67;1.70;;;;;;;-0.57;100.00;100426.03;4903534;29;20044;-82
2023/11/28 10:34:08;;;;;;;2.65;1.55;;;;;;;-0.64;100.00;100435.75;4866674;29;20032;-81
2023/11/28 10:36:42;;;;;;;3.13;1.60;;;;;;;-0.61;100.00;100427.44;4851084;29;20049;-80
2023/11/28 10:39:20;;;;;;;3.17;1.73;;;;;;;-0.60;100.00;100429.09;4899579;29;20032;-81
2023/11/28 10:41:48;;;;;;;2.38;1.42;;;;;;;-0.58;100.00;100432.31;4884792;29;20052;-80
2023/11/28 10:44:15;;;;;;;2.60;1.55;;;;;;;-0.62;100.00;100431.09;4857763;29;20036;-80
2023/11/28 10:46:42;;;;;;;9.25;2.05;;;;;;;-0.62;100.00;100434.53;4882135;29;20067;-80
2023/11/28 10:49:07;;;;;;;4.97;1.65;;;;;;;-0.65;100.00;100442.03;4884087;29;20028;-81
2023/11/28 10:51:35;;;;;;;4.65;1.50;;;;;;;-0.65;100.00;100444.66;4861221;29;20513;-81
2023/11/28 10:54:07;;;;;;;3.67;1.42;;;;;;;-0.65;100.00;100439.41;4881303;29;20052;-82
2023/11/28 10:56:44;;;;;;;3.72;1.52;;;;;;;-0.68;100.00;100445.88;4876995;29;20131;-82
2023/11/28 10:59:19;;;;;;;3.22;1.40;;;;;;;-0.68;100.00;100443.22;4865719;29;20044;-82
2023/11/28 11:01:46;;;;;;;2.20;1.60;;;;;;;-0.68;100.00;100452.94;4867733;29;20079;-82
2023/11/28 11:04:13;;;;;;;3.22;1.40;;;;;;;-0.69;100.00;100451.34;4859092;29;20062;-81
2023/11/28 11:06:41;;;;;;;4.13;1.88;;;;;;;-0.75;100.00;100454.78;4880446;29;20046;-82
2023/11/28 11:09:11;;;;;;;3.15;1.42;;;;;;;-0.73;100.00;100455.41;4879595;29;20036;-82
2023/11/28 11:11:40;;;;;;;2.95;1.50;;;;;;;-0.75;100.00;100455.56;4877409;29;20041;-82
2023/11/28 11:14:23;;;;;;;3.95;1.65;;;;;;;-0.79;100.00;100456.19;4886351;29;20035;-83
2023/11/28 11:16:58;;;;;;;2.72;1.60;;;;;;;-0.77;100.00;100464.69;4864099;29;20534;-85
2023/11/28 11:19:26;;;;;;;3.17;1.80;;;;;;;-0.72;100.00;100464.91;4863149;29;20059;-81